Terminal Aerodrome Forecast
Issued by NWS

Home | Current Version | Previous Version | Text Only | Print | Product List | Glossary On
Versions: 1 2 3 4 5 6 7 8 9 10 11 12 13 14 15 16 17 18
000
FTUS43 KGRB 281100
TAFCWA
TAF
KCWA 281122Z 2812/2912 32008KT P6SM SKC
     FM281400 33010KT P6SM SCT050
      TEMPO 2815/2819 BKN050
     FM281900 31009KT P6SM SCT050 BKN100
     FM290400 32004KT P6SM BKN100=

USA.gov is the U.S. government's official web portal to all federal, state and local government web resources and services.